Portada
METAR-TAF:

METAR-TAF

Aeroports :

Paraguaná, Veneçuela

latitud: 11-47N, longitud: 070-09W, altitud: 23 m

METAR: manca

Hora: 17:07 (21:07 UTC)

Pronòstic

L'informe es va fer fa 23 hores i 7 minuts, a les 22:00 UTC
Pronòstic vàlid del 19 a les 00 UTC al 20 a les 00 UTC
Vent 10 kt del Est
Visibilitat 10 km o més
Núvols disperses a una alçada de 1300 ft
Evolucionant progressivament
l' 18 a les 00 UTC al 18 a les 04 UTC
Vent 8 kt del Est
Visibilitat 10 km o més
Núvols disperses a una alçada de 1300 ft
Núvols disperses a una alçada de 10000 ft

TAF: SVJC 182200Z 1900/2000 09010KT 9999 SCT013 TX34/18 TN25/08Z BECMG 1800/1804 09008KT 9999 SCT013 SCT100

Observacions i pronòstics meteorològics de més de 4000 aeroports (METAR i TAF).

Les estacions disponibles són els punts grocs i vermells al mapa.

Posi el ratolí al punt desitjat per veure el nom de l'estació.

Feu clic per veure les observacions i els pronòstics meteorològics.

Per canviar el mapa: feu clic els botons verds amb una creu de color negre per apropar; al botó verd amb un guió per allunyar la imatge; o en les fletxes verdes per a mapes adjacents.


METAR-TAF: